sensor_id;sensor_type;location;lat;lon;timestamp;temperature;humidity
44277;DHT22;29973;43.742;1.236;2023-09-19T00:00:57;14.40;99.90
44277;DHT22;29973;43.742;1.236;2023-09-19T00:03:24;14.30;99.90
44277;DHT22;29973;43.742;1.236;2023-09-19T00:05:51;14.30;99.90
44277;DHT22;29973;43.742;1.236;2023-09-19T00:08:16;14.30;99.90
44277;DHT22;29973;43.742;1.236;2023-09-19T00:10:43;14.30;99.90
44277;DHT22;29973;43.742;1.236;2023-09-19T00:13:09;14.40;99.90
44277;DHT22;29973;43.742;1.236;2023-09-19T00:15:44;14.30;99.90
44277;DHT22;29973;43.742;1.236;2023-09-19T00:18:20;14.30;99.90
44277;DHT22;29973;43.742;1.236;2023-09-19T00:20:49;14.30;99.90
44277;DHT22;29973;43.742;1.236;2023-09-19T00:23:17;14.20;99.90
44277;DHT22;29973;43.742;1.236;2023-09-19T00:25:44;14.10;99.90
44277;DHT22;29973;43.742;1.236;2023-09-19T00:28:10;14.10;99.90
44277;DHT22;29973;43.742;1.236;2023-09-19T00:30:36;14.10;99.90
44277;DHT22;29973;43.742;1.236;2023-09-19T00:33:04;14.10;99.90
44277;DHT22;29973;43.742;1.236;2023-09-19T00:35:32;14.00;99.90
44277;DHT22;29973;43.742;1.236;2023-09-19T00:37:58;14.10;99.90
44277;DHT22;29973;43.742;1.236;2023-09-19T00:40:24;14.10;99.90
44277;DHT22;29973;43.742;1.236;2023-09-19T00:42:51;14.10;99.90
44277;DHT22;29973;43.742;1.236;2023-09-19T00:45:18;14.00;99.90
44277;DHT22;29973;43.742;1.236;2023-09-19T00:47:48;14.00;99.90
44277;DHT22;29973;43.742;1.236;2023-09-19T00:50:19;14.00;99.90
44277;DHT22;29973;43.742;1.236;2023-09-19T00:52:46;14.00;99.90
44277;DHT22;29973;43.742;1.236;2023-09-19T00:55:14;14.00;99.90
44277;DHT22;29973;43.742;1.236;2023-09-19T00:57:41;13.90;99.90
44277;DHT22;29973;43.742;1.236;2023-09-19T01:00:08;13.80;99.90
44277;DHT22;29973;43.742;1.236;2023-09-19T01:02:37;14.00;99.90
44277;DHT22;29973;43.742;1.236;2023-09-19T01:05:03;13.90;99.90
44277;DHT22;29973;43.742;1.236;2023-09-19T01:07:32;13.90;99.90
44277;DHT22;29973;43.742;1.236;2023-09-19T01:10:00;13.80;99.90
44277;DHT22;29973;43.742;1.236;2023-09-19T01:12:45;13.90;99.90
44277;DHT22;29973;43.742;1.236;2023-09-19T01:15:28;13.90;99.90
44277;DHT22;29973;43.742;1.236;2023-09-19T01:18:14;13.90;99.90
44277;DHT22;29973;43.742;1.236;2023-09-19T01:26:16;13.70;99.90
44277;DHT22;29973;43.742;1.236;2023-09-19T01:28:53;13.60;99.90
44277;DHT22;29973;43.742;1.236;2023-09-19T01:31:23;13.50;99.90
44277;DHT22;29973;43.742;1.236;2023-09-19T01:33:55;13.60;99.90
44277;DHT22;29973;43.742;1.236;2023-09-19T01:36:25;13.60;99.90
44277;DHT22;29973;43.742;1.236;2023-09-19T01:38:52;13.60;99.90
44277;DHT22;29973;43.742;1.236;2023-09-19T01:44:15;13.60;99.90
44277;DHT22;29973;43.742;1.236;2023-09-19T01:46:44;13.70;99.90
44277;DHT22;29973;43.742;1.236;2023-09-19T01:49:33;13.90;99.90
44277;DHT22;29973;43.742;1.236;2023-09-19T01:52:10;13.90;99.90
44277;DHT22;29973;43.742;1.236;2023-09-19T01:54:52;13.90;99.90
44277;DHT22;29973;43.742;1.236;2023-09-19T01:57:30;13.90;99.90
44277;DHT22;29973;43.742;1.236;2023-09-19T02:00:05;13.70;99.90
44277;DHT22;29973;43.742;1.236;2023-09-19T02:02:37;13.80;99.90
44277;DHT22;29973;43.742;1.236;2023-09-19T02:05:04;13.70;99.90
44277;DHT22;29973;43.742;1.236;2023-09-19T02:07:30;13.70;99.90
44277;DHT22;29973;43.742;1.236;2023-09-19T02:09:59;13.70;99.90
44277;DHT22;29973;43.742;1.236;2023-09-19T02:12:32;13.60;99.90
44277;DHT22;29973;43.742;1.236;2023-09-19T02:14:58;13.60;99.90
44277;DHT22;29973;43.742;1.236;2023-09-19T02:17:25;13.60;99.90
44277;DHT22;29973;43.742;1.236;2023-09-19T02:19:54;13.60;99.90
44277;DHT22;29973;43.742;1.236;2023-09-19T02:22:24;13.60;99.90
44277;DHT22;29973;43.742;1.236;2023-09-19T02:24:50;13.50;99.90
44277;DHT22;29973;43.742;1.236;2023-09-19T02:27:16;13.50;99.90
44277;DHT22;29973;43.742;1.236;2023-09-19T02:29:43;13.50;99.90
44277;DHT22;29973;43.742;1.236;2023-09-19T02:32:08;13.60;99.90
44277;DHT22;29973;43.742;1.236;2023-09-19T02:34:37;13.50;99.90
44277;DHT22;29973;43.742;1.236;2023-09-19T02:37:07;13.40;99.90
44277;DHT22;29973;43.742;1.236;2023-09-19T02:39:38;13.40;99.90
44277;DHT22;29973;43.742;1.236;2023-09-19T02:42:04;13.50;99.90
44277;DHT22;29973;43.742;1.236;2023-09-19T02:44:30;13.50;99.90
44277;DHT22;29973;43.742;1.236;2023-09-19T02:46:56;13.50;99.90
44277;DHT22;29973;43.742;1.236;2023-09-19T02:49:23;13.60;99.90
44277;DHT22;29973;43.742;1.236;2023-09-19T02:51:48;13.60;99.90
44277;DHT22;29973;43.742;1.236;2023-09-19T02:54:14;13.60;99.90
44277;DHT22;29973;43.742;1.236;2023-09-19T02:56:41;13.60;99.90
44277;DHT22;29973;43.742;1.236;2023-09-19T02:59:07;13.60;99.90
44277;DHT22;29973;43.742;1.236;2023-09-19T03:01:35;13.50;99.90
44277;DHT22;29973;43.742;1.236;2023-09-19T03:04:01;13.50;99.90
44277;DHT22;29973;43.742;1.236;2023-09-19T03:06:28;13.50;99.90
44277;DHT22;29973;43.742;1.236;2023-09-19T03:08:56;13.50;99.90
44277;DHT22;29973;43.742;1.236;2023-09-19T03:11:22;13.50;99.90
44277;DHT22;29973;43.742;1.236;2023-09-19T03:13:55;13.50;99.90
44277;DHT22;29973;43.742;1.236;2023-09-19T03:16:21;13.40;99.90
44277;DHT22;29973;43.742;1.236;2023-09-19T03:18:50;13.40;99.90
44277;DHT22;29973;43.742;1.236;2023-09-19T03:21:17;13.30;99.90
44277;DHT22;29973;43.742;1.236;2023-09-19T03:23:44;13.30;99.90
44277;DHT22;29973;43.742;1.236;2023-09-19T03:26:14;13.30;99.90
44277;DHT22;29973;43.742;1.236;2023-09-19T03:28:41;13.30;99.90
44277;DHT22;29973;43.742;1.236;2023-09-19T03:31:08;13.20;99.90
44277;DHT22;29973;43.742;1.236;2023-09-19T03:33:34;13.20;99.90
44277;DHT22;29973;43.742;1.236;2023-09-19T03:36:01;13.20;99.90
44277;DHT22;29973;43.742;1.236;2023-09-19T03:38:30;13.10;99.90
44277;DHT22;29973;43.742;1.236;2023-09-19T03:40:57;13.10;99.90
44277;DHT22;29973;43.742;1.236;2023-09-19T03:43:22;13.20;99.90
44277;DHT22;29973;43.742;1.236;2023-09-19T03:45:48;13.30;99.90
44277;DHT22;29973;43.742;1.236;2023-09-19T03:48:14;13.30;99.90
44277;DHT22;29973;43.742;1.236;2023-09-19T03:50:40;13.30;99.90
44277;DHT22;29973;43.742;1.236;2023-09-19T03:53:06;13.30;99.90
44277;DHT22;29973;43.742;1.236;2023-09-19T03:55:34;13.30;99.90
44277;DHT22;29973;43.742;1.236;2023-09-19T03:58:01;13.30;99.90
44277;DHT22;29973;43.742;1.236;2023-09-19T04:00:27;13.30;99.90
44277;DHT22;29973;43.742;1.236;2023-09-19T04:02:54;13.30;99.90
44277;DHT22;29973;43.742;1.236;2023-09-19T04:05:22;13.40;99.90
44277;DHT22;29973;43.742;1.236;2023-09-19T04:07:48;13.30;99.90
44277;DHT22;29973;43.742;1.236;2023-09-19T04:10:13;13.30;99.90
44277;DHT22;29973;43.742;1.236;2023-09-19T04:12:40;13.30;99.90
44277;DHT22;29973;43.742;1.236;2023-09-19T04:15:06;13.10;99.90
44277;DHT22;29973;43.742;1.236;2023-09-19T04:17:33;13.00;99.90
44277;DHT22;29973;43.742;1.236;2023-09-19T04:19:59;12.90;99.90
44277;DHT22;29973;43.742;1.236;2023-09-19T04:22:25;12.80;99.90
44277;DHT22;29973;43.742;1.236;2023-09-19T04:24:51;12.80;99.90
44277;DHT22;29973;43.742;1.236;2023-09-19T04:27:16;12.90;99.90
44277;DHT22;29973;43.742;1.236;2023-09-19T04:29:44;12.90;99.90
44277;DHT22;29973;43.742;1.236;2023-09-19T04:32:10;13.10;99.90
44277;DHT22;29973;43.742;1.236;2023-09-19T04:34:36;13.20;99.90
44277;DHT22;29973;43.742;1.236;2023-09-19T04:37:01;13.20;99.90
44277;DHT22;29973;43.742;1.236;2023-09-19T04:39:29;13.20;99.90
44277;DHT22;29973;43.742;1.236;2023-09-19T04:41:54;13.10;99.90
44277;DHT22;29973;43.742;1.236;2023-09-19T04:44:20;13.00;99.90
44277;DHT22;29973;43.742;1.236;2023-09-19T04:46:46;13.00;99.90
44277;DHT22;29973;43.742;1.236;2023-09-19T04:49:12;13.20;99.90
44277;DHT22;29973;43.742;1.236;2023-09-19T04:51:39;13.20;99.90
44277;DHT22;29973;43.742;1.236;2023-09-19T04:54:05;13.00;99.90
44277;DHT22;29973;43.742;1.236;2023-09-19T04:56:31;12.90;99.90
44277;DHT22;29973;43.742;1.236;2023-09-19T04:58:59;13.00;99.90
44277;DHT22;29973;43.742;1.236;2023-09-19T05:01:26;13.00;99.90
44277;DHT22;29973;43.742;1.236;2023-09-19T05:03:52;13.00;99.90
44277;DHT22;29973;43.742;1.236;2023-09-19T05:06:22;13.10;99.90
44277;DHT22;29973;43.742;1.236;2023-09-19T05:08:48;13.00;99.90
44277;DHT22;29973;43.742;1.236;2023-09-19T05:11:17;13.00;99.90
44277;DHT22;29973;43.742;1.236;2023-09-19T05:13:43;12.90;99.90
44277;DHT22;29973;43.742;1.236;2023-09-19T05:16:09;12.90;99.90
44277;DHT22;29973;43.742;1.236;2023-09-19T05:18:35;12.90;99.90
44277;DHT22;29973;43.742;1.236;2023-09-19T05:21:04;12.90;99.90
44277;DHT22;29973;43.742;1.236;2023-09-19T05:23:30;12.90;99.90
44277;DHT22;29973;43.742;1.236;2023-09-19T05:25:56;12.90;99.90
44277;DHT22;29973;43.742;1.236;2023-09-19T05:28:26;12.80;99.90
44277;DHT22;29973;43.742;1.236;2023-09-19T05:30:52;12.80;99.90
44277;DHT22;29973;43.742;1.236;2023-09-19T05:33:19;12.70;99.90
44277;DHT22;29973;43.742;1.236;2023-09-19T05:35:45;12.80;99.90
44277;DHT22;29973;43.742;1.236;2023-09-19T05:38:13;12.70;99.90
44277;DHT22;29973;43.742;1.236;2023-09-19T05:40:39;12.80;99.90
44277;DHT22;29973;43.742;1.236;2023-09-19T05:43:10;13.00;99.90
44277;DHT22;29973;43.742;1.236;2023-09-19T05:45:36;13.00;99.90
44277;DHT22;29973;43.742;1.236;2023-09-19T05:48:11;13.00;99.90
44277;DHT22;29973;43.742;1.236;2023-09-19T05:50:37;13.00;99.90
44277;DHT22;29973;43.742;1.236;2023-09-19T05:53:04;13.20;99.90
44277;DHT22;29973;43.742;1.236;2023-09-19T05:55:30;13.20;99.90
44277;DHT22;29973;43.742;1.236;2023-09-19T05:57:56;13.10;99.90
44277;DHT22;29973;43.742;1.236;2023-09-19T06:00:22;13.00;99.90
44277;DHT22;29973;43.742;1.236;2023-09-19T06:02:52;13.20;99.90
44277;DHT22;29973;43.742;1.236;2023-09-19T06:05:18;13.50;99.90
44277;DHT22;29973;43.742;1.236;2023-09-19T06:07:45;13.70;99.90
44277;DHT22;29973;43.742;1.236;2023-09-19T06:10:11;13.50;99.90
44277;DHT22;29973;43.742;1.236;2023-09-19T06:12:40;13.40;99.90
44277;DHT22;29973;43.742;1.236;2023-09-19T06:15:09;13.50;99.90
44277;DHT22;29973;43.742;1.236;2023-09-19T06:17:38;13.50;99.90
44277;DHT22;29973;43.742;1.236;2023-09-19T06:20:07;13.60;99.90
44277;DHT22;29973;43.742;1.236;2023-09-19T06:22:44;13.70;99.90
44277;DHT22;29973;43.742;1.236;2023-09-19T06:25:11;13.80;99.90
44277;DHT22;29973;43.742;1.236;2023-09-19T06:27:39;13.90;99.90
44277;DHT22;29973;43.742;1.236;2023-09-19T06:30:10;14.10;99.90
44277;DHT22;29973;43.742;1.236;2023-09-19T06:32:40;14.20;99.90
44277;DHT22;29973;43.742;1.236;2023-09-19T06:35:13;14.50;99.90
44277;DHT22;29973;43.742;1.236;2023-09-19T06:37:39;14.70;99.90
44277;DHT22;29973;43.742;1.236;2023-09-19T06:40:15;14.90;99.90
44277;DHT22;29973;43.742;1.236;2023-09-19T06:42:41;15.00;99.90
44277;DHT22;29973;43.742;1.236;2023-09-19T06:45:08;15.20;99.90
44277;DHT22;29973;43.742;1.236;2023-09-19T06:47:36;15.30;99.90
44277;DHT22;29973;43.742;1.236;2023-09-19T06:50:02;15.20;99.90
44277;DHT22;29973;43.742;1.236;2023-09-19T06:52:28;15.40;99.90
44277;DHT22;29973;43.742;1.236;2023-09-19T06:54:54;15.60;99.90
44277;DHT22;29973;43.742;1.236;2023-09-19T06:57:19;15.70;99.90
44277;DHT22;29973;43.742;1.236;2023-09-19T06:59:45;15.90;99.90
44277;DHT22;29973;43.742;1.236;2023-09-19T07:02:11;16.10;99.90
44277;DHT22;29973;43.742;1.236;2023-09-19T07:04:38;16.20;99.90
44277;DHT22;29973;43.742;1.236;2023-09-19T07:07:04;16.30;99.90
44277;DHT22;29973;43.742;1.236;2023-09-19T07:09:29;16.40;99.90
44277;DHT22;29973;43.742;1.236;2023-09-19T07:11:55;16.50;99.90
44277;DHT22;29973;43.742;1.236;2023-09-19T07:14:21;16.60;99.90
44277;DHT22;29973;43.742;1.236;2023-09-19T07:16:47;16.80;99.90
44277;DHT22;29973;43.742;1.236;2023-09-19T07:19:16;17.00;99.90
44277;DHT22;29973;43.742;1.236;2023-09-19T07:21:41;17.20;99.90
44277;DHT22;29973;43.742;1.236;2023-09-19T07:24:08;17.50;99.90
44277;DHT22;29973;43.742;1.236;2023-09-19T07:26:34;17.60;99.90
44277;DHT22;29973;43.742;1.236;2023-09-19T07:28:59;17.70;99.90
44277;DHT22;29973;43.742;1.236;2023-09-19T07:31:27;17.90;99.90
44277;DHT22;29973;43.742;1.236;2023-09-19T07:33:54;18.10;99.90
44277;DHT22;29973;43.742;1.236;2023-09-19T07:36:19;18.30;99.90
44277;DHT22;29973;43.742;1.236;2023-09-19T07:38:45;18.50;99.90
44277;DHT22;29973;43.742;1.236;2023-09-19T07:41:11;18.50;99.90
44277;DHT22;29973;43.742;1.236;2023-09-19T07:43:37;18.50;99.90
44277;DHT22;29973;43.742;1.236;2023-09-19T07:46:07;18.50;99.90
44277;DHT22;29973;43.742;1.236;2023-09-19T07:48:37;18.50;99.90
44277;DHT22;29973;43.742;1.236;2023-09-19T07:51:08;18.80;99.90
44277;DHT22;29973;43.742;1.236;2023-09-19T07:53:34;18.90;99.90
44277;DHT22;29973;43.742;1.236;2023-09-19T07:56:05;19.00;99.90
44277;DHT22;29973;43.742;1.236;2023-09-19T07:58:31;19.30;99.90
44277;DHT22;29973;43.742;1.236;2023-09-19T08:01:05;19.40;99.90
44277;DHT22;29973;43.742;1.236;2023-09-19T08:03:32;19.50;99.90
44277;DHT22;29973;43.742;1.236;2023-09-19T08:05:59;19.70;99.90
44277;DHT22;29973;43.742;1.236;2023-09-19T08:08:25;19.70;99.90
44277;DHT22;29973;43.742;1.236;2023-09-19T08:10:58;19.60;99.90
44277;DHT22;29973;43.742;1.236;2023-09-19T08:13:24;19.60;99.90
44277;DHT22;29973;43.742;1.236;2023-09-19T08:15:50;19.60;99.90
44277;DHT22;29973;43.742;1.236;2023-09-19T08:18:19;19.60;99.90
44277;DHT22;29973;43.742;1.236;2023-09-19T08:20:50;19.60;99.90
44277;DHT22;29973;43.742;1.236;2023-09-19T08:23:16;20.00;99.90
44277;DHT22;29973;43.742;1.236;2023-09-19T08:25:48;20.20;99.90
44277;DHT22;29973;43.742;1.236;2023-09-19T08:28:14;19.90;99.90
44277;DHT22;29973;43.742;1.236;2023-09-19T08:30:47;20.00;99.90
44277;DHT22;29973;43.742;1.236;2023-09-19T08:33:12;19.70;99.90
44277;DHT22;29973;43.742;1.236;2023-09-19T08:35:41;19.60;99.90
44277;DHT22;29973;43.742;1.236;2023-09-19T08:38:10;20.00;99.90
44277;DHT22;29973;43.742;1.236;2023-09-19T08:40:39;20.30;99.90
44277;DHT22;29973;43.742;1.236;2023-09-19T08:43:07;20.20;99.90
44277;DHT22;29973;43.742;1.236;2023-09-19T08:45:34;21.10;99.90
44277;DHT22;29973;43.742;1.236;2023-09-19T08:48:23;21.80;99.90
44277;DHT22;29973;43.742;1.236;2023-09-19T08:51:06;22.50;99.90
44277;DHT22;29973;43.742;1.236;2023-09-19T08:53:54;22.90;99.90
44277;DHT22;29973;43.742;1.236;2023-09-19T08:56:26;23.00;99.90
44277;DHT22;29973;43.742;1.236;2023-09-19T08:58:58;22.00;99.90
44277;DHT22;29973;43.742;1.236;2023-09-19T09:01:28;21.80;99.90
44277;DHT22;29973;43.742;1.236;2023-09-19T09:03:55;21.90;99.90
44277;DHT22;29973;43.742;1.236;2023-09-19T09:06:23;21.80;99.90
44277;DHT22;29973;43.742;1.236;2023-09-19T09:08:52;21.50;99.90
44277;DHT22;29973;43.742;1.236;2023-09-19T09:11:20;21.50;99.90
44277;DHT22;29973;43.742;1.236;2023-09-19T09:13:46;21.50;99.90
44277;DHT22;29973;43.742;1.236;2023-09-19T09:16:13;21.40;99.90
44277;DHT22;29973;43.742;1.236;2023-09-19T09:18:40;21.20;99.90
44277;DHT22;29973;43.742;1.236;2023-09-19T09:21:06;21.00;99.90
44277;DHT22;29973;43.742;1.236;2023-09-19T09:23:32;21.10;99.90
44277;DHT22;29973;43.742;1.236;2023-09-19T09:25:59;21.50;99.90
44277;DHT22;29973;43.742;1.236;2023-09-19T09:28:30;22.40;99.90
44277;DHT22;29973;43.742;1.236;2023-09-19T09:30:59;23.10;99.90
44277;DHT22;29973;43.742;1.236;2023-09-19T09:33:25;23.30;99.90
44277;DHT22;29973;43.742;1.236;2023-09-19T09:35:58;23.10;99.90
44277;DHT22;29973;43.742;1.236;2023-09-19T09:38:42;23.30;99.90
44277;DHT22;29973;43.742;1.236;2023-09-19T09:41:09;23.30;99.90
44277;DHT22;29973;43.742;1.236;2023-09-19T09:43:42;23.30;99.90
44277;DHT22;29973;43.742;1.236;2023-09-19T09:46:16;23.70;99.90
44277;DHT22;29973;43.742;1.236;2023-09-19T09:51:43;24.20;99.90
44277;DHT22;29973;43.742;1.236;2023-09-19T09:54:17;24.40;99.90
44277;DHT22;29973;43.742;1.236;2023-09-19T09:56:56;25.30;99.90
44277;DHT22;29973;43.742;1.236;2023-09-19T09:59:47;24.80;99.90
44277;DHT22;29973;43.742;1.236;2023-09-19T10:02:16;24.50;99.90
44277;DHT22;29973;43.742;1.236;2023-09-19T10:04:55;23.50;99.90
44277;DHT22;29973;43.742;1.236;2023-09-19T10:07:40;22.70;99.90
44277;DHT22;29973;43.742;1.236;2023-09-19T10:10:08;22.80;99.90
44277;DHT22;29973;43.742;1.236;2023-09-19T10:12:50;22.60;99.90
44277;DHT22;29973;43.742;1.236;2023-09-19T10:15:22;22.70;99.90
44277;DHT22;29973;43.742;1.236;2023-09-19T10:17:55;22.70;99.90
44277;DHT22;29973;43.742;1.236;2023-09-19T10:20:24;21.90;99.90
44277;DHT22;29973;43.742;1.236;2023-09-19T10:23:07;21.50;99.90
44277;DHT22;29973;43.742;1.236;2023-09-19T10:25:42;21.70;99.90
44277;DHT22;29973;43.742;1.236;2023-09-19T10:28:10;24.80;99.90
44277;DHT22;29973;43.742;1.236;2023-09-19T10:30:46;27.30;99.90
44277;DHT22;29973;43.742;1.236;2023-09-19T10:33:14;28.70;99.90
44277;DHT22;29973;43.742;1.236;2023-09-19T10:35:42;27.40;99.90
44277;DHT22;29973;43.742;1.236;2023-09-19T10:38:13;25.90;99.90
44277;DHT22;29973;43.742;1.236;2023-09-19T10:40:39;24.80;99.90
44277;DHT22;29973;43.742;1.236;2023-09-19T10:43:19;26.50;99.90
44277;DHT22;29973;43.742;1.236;2023-09-19T10:45:49;26.50;99.90
44277;DHT22;29973;43.742;1.236;2023-09-19T10:48:16;24.70;99.90
44277;DHT22;29973;43.742;1.236;2023-09-19T10:51:06;24.70;99.90
44277;DHT22;29973;43.742;1.236;2023-09-19T10:56:23;28.10;99.90
44277;DHT22;29973;43.742;1.236;2023-09-19T10:59:14;27.90;99.90
44277;DHT22;29973;43.742;1.236;2023-09-19T11:01:55;28.90;99.90
44277;DHT22;29973;43.742;1.236;2023-09-19T11:07:05;30.80;99.90
44277;DHT22;29973;43.742;1.236;2023-09-19T11:09:48;30.70;99.90
44277;DHT22;29973;43.742;1.236;2023-09-19T11:14:56;30.60;99.90
44277;DHT22;29973;43.742;1.236;2023-09-19T11:30:48;29.30;99.90
44277;DHT22;29973;43.742;1.236;2023-09-19T11:33:28;29.50;99.90
44277;DHT22;29973;43.742;1.236;2023-09-19T11:36:01;28.70;99.90
44277;DHT22;29973;43.742;1.236;2023-09-19T11:43:47;29.90;99.90
44277;DHT22;29973;43.742;1.236;2023-09-19T11:46:13;29.60;99.90
44277;DHT22;29973;43.742;1.236;2023-09-19T11:48:42;30.20;99.90
44277;DHT22;29973;43.742;1.236;2023-09-19T11:51:20;30.40;99.90
44277;DHT22;29973;43.742;1.236;2023-09-19T11:53:53;30.80;99.90
44277;DHT22;29973;43.742;1.236;2023-09-19T11:56:22;30.90;99.90
44277;DHT22;29973;43.742;1.236;2023-09-19T11:58:50;32.10;99.90
44277;DHT22;29973;43.742;1.236;2023-09-19T12:01:42;32.00;99.90
44277;DHT22;29973;43.742;1.236;2023-09-19T12:04:11;32.20;99.90
44277;DHT22;29973;43.742;1.236;2023-09-19T12:06:37;31.70;99.90
44277;DHT22;29973;43.742;1.236;2023-09-19T12:09:12;32.20;99.90
44277;DHT22;29973;43.742;1.236;2023-09-19T12:11:42;33.40;99.90
44277;DHT22;29973;43.742;1.236;2023-09-19T12:14:11;32.30;99.90
44277;DHT22;29973;43.742;1.236;2023-09-19T12:16:37;30.30;99.90
44277;DHT22;29973;43.742;1.236;2023-09-19T12:19:20;30.00;99.90
44277;DHT22;29973;43.742;1.236;2023-09-19T12:22:01;28.40;99.90
44277;DHT22;29973;43.742;1.236;2023-09-19T12:24:32;29.40;99.90
44277;DHT22;29973;43.742;1.236;2023-09-19T12:27:02;30.10;99.90
44277;DHT22;29973;43.742;1.236;2023-09-19T12:29:30;30.90;99.90
44277;DHT22;29973;43.742;1.236;2023-09-19T12:31:58;32.70;99.90
44277;DHT22;29973;43.742;1.236;2023-09-19T12:34:28;33.10;99.90
44277;DHT22;29973;43.742;1.236;2023-09-19T12:37:11;34.40;99.90
44277;DHT22;29973;43.742;1.236;2023-09-19T12:39:45;35.40;99.90
44277;DHT22;29973;43.742;1.236;2023-09-19T12:42:26;34.80;99.90
44277;DHT22;29973;43.742;1.236;2023-09-19T12:44:58;33.20;99.90
44277;DHT22;29973;43.742;1.236;2023-09-19T12:47:27;30.90;99.90
44277;DHT22;29973;43.742;1.236;2023-09-19T12:50:06;29.70;99.90
44277;DHT22;29973;43.742;1.236;2023-09-19T12:52:43;29.60;99.90
44277;DHT22;29973;43.742;1.236;2023-09-19T12:55:28;31.70;99.90
44277;DHT22;29973;43.742;1.236;2023-09-19T12:58:14;31.30;99.90
44277;DHT22;29973;43.742;1.236;2023-09-19T13:00:45;31.40;99.90
44277;DHT22;29973;43.742;1.236;2023-09-19T13:05:52;31.70;99.90
44277;DHT22;29973;43.742;1.236;2023-09-19T13:08:26;33.50;99.90
44277;DHT22;29973;43.742;1.236;2023-09-19T13:13:27;32.50;99.90
44277;DHT22;29973;43.742;1.236;2023-09-19T13:15:53;33.00;99.90
44277;DHT22;29973;43.742;1.236;2023-09-19T13:18:19;32.00;99.90
44277;DHT22;29973;43.742;1.236;2023-09-19T13:21:05;30.90;99.90
44277;DHT22;29973;43.742;1.236;2023-09-19T13:23:34;30.90;99.90
44277;DHT22;29973;43.742;1.236;2023-09-19T13:25:59;31.40;99.90
44277;DHT22;29973;43.742;1.236;2023-09-19T13:28:25;30.90;99.90
44277;DHT22;29973;43.742;1.236;2023-09-19T13:30:51;32.00;99.90
44277;DHT22;29973;43.742;1.236;2023-09-19T13:33:17;32.60;99.90
44277;DHT22;29973;43.742;1.236;2023-09-19T13:35:46;34.40;99.90
44277;DHT22;29973;43.742;1.236;2023-09-19T13:38:13;36.00;99.90
44277;DHT22;29973;43.742;1.236;2023-09-19T13:40:40;36.40;99.90
44277;DHT22;29973;43.742;1.236;2023-09-19T13:43:07;35.30;99.90
44277;DHT22;29973;43.742;1.236;2023-09-19T13:45:33;34.70;99.90
44277;DHT22;29973;43.742;1.236;2023-09-19T13:47:59;34.50;99.90
44277;DHT22;29973;43.742;1.236;2023-09-19T13:50:25;34.70;99.90
44277;DHT22;29973;43.742;1.236;2023-09-19T13:52:54;34.20;99.90
44277;DHT22;29973;43.742;1.236;2023-09-19T13:55:20;35.60;99.90
44277;DHT22;29973;43.742;1.236;2023-09-19T13:57:49;33.50;99.90
44277;DHT22;29973;43.742;1.236;2023-09-19T14:00:16;32.30;99.90
44277;DHT22;29973;43.742;1.236;2023-09-19T14:02:43;32.40;99.90
44277;DHT22;29973;43.742;1.236;2023-09-19T14:05:12;33.90;99.90
44277;DHT22;29973;43.742;1.236;2023-09-19T14:07:42;33.30;99.90
44277;DHT22;29973;43.742;1.236;2023-09-19T14:10:09;35.30;99.90
44277;DHT22;29973;43.742;1.236;2023-09-19T14:12:36;36.70;99.90
44277;DHT22;29973;43.742;1.236;2023-09-19T14:15:06;36.70;99.90
44277;DHT22;29973;43.742;1.236;2023-09-19T14:17:32;36.50;99.90
44277;DHT22;29973;43.742;1.236;2023-09-19T14:19:58;37.20;99.90
44277;DHT22;29973;43.742;1.236;2023-09-19T14:22:24;36.00;99.90
44277;DHT22;29973;43.742;1.236;2023-09-19T14:24:49;37.00;99.90
44277;DHT22;29973;43.742;1.236;2023-09-19T14:27:15;35.20;99.90
44277;DHT22;29973;43.742;1.236;2023-09-19T14:29:42;36.70;99.90
44277;DHT22;29973;43.742;1.236;2023-09-19T14:32:07;35.50;99.90
44277;DHT22;29973;43.742;1.236;2023-09-19T14:34:33;36.10;99.90
44277;DHT22;29973;43.742;1.236;2023-09-19T14:36:59;36.40;99.90
44277;DHT22;29973;43.742;1.236;2023-09-19T14:39:24;34.60;99.90
44277;DHT22;29973;43.742;1.236;2023-09-19T14:41:50;36.30;99.90
44277;DHT22;29973;43.742;1.236;2023-09-19T14:44:16;36.30;99.90
44277;DHT22;29973;43.742;1.236;2023-09-19T14:46:42;33.80;99.90
44277;DHT22;29973;43.742;1.236;2023-09-19T14:49:11;35.70;99.90
44277;DHT22;29973;43.742;1.236;2023-09-19T14:51:40;34.60;99.90
44277;DHT22;29973;43.742;1.236;2023-09-19T14:54:06;34.90;99.90
44277;DHT22;29973;43.742;1.236;2023-09-19T14:56:33;33.40;99.90
44277;DHT22;29973;43.742;1.236;2023-09-19T14:59:00;30.40;99.90
44277;DHT22;29973;43.742;1.236;2023-09-19T15:01:26;33.40;99.90
44277;DHT22;29973;43.742;1.236;2023-09-19T15:03:51;34.10;99.90
44277;DHT22;29973;43.742;1.236;2023-09-19T15:06:19;35.80;99.90
44277;DHT22;29973;43.742;1.236;2023-09-19T15:08:47;35.80;99.90
44277;DHT22;29973;43.742;1.236;2023-09-19T15:11:17;37.50;99.90
44277;DHT22;29973;43.742;1.236;2023-09-19T15:13:44;37.30;99.90
44277;DHT22;29973;43.742;1.236;2023-09-19T15:16:10;35.40;99.90
44277;DHT22;29973;43.742;1.236;2023-09-19T15:18:38;36.10;99.90
44277;DHT22;29973;43.742;1.236;2023-09-19T15:21:05;36.80;99.90
44277;DHT22;29973;43.742;1.236;2023-09-19T15:23:32;37.10;99.90
44277;DHT22;29973;43.742;1.236;2023-09-19T15:26:00;37.20;99.90
44277;DHT22;29973;43.742;1.236;2023-09-19T15:28:27;36.40;99.90
44277;DHT22;29973;43.742;1.236;2023-09-19T15:31:01;35.90;99.90
44277;DHT22;29973;43.742;1.236;2023-09-19T15:33:27;35.50;99.90
44277;DHT22;29973;43.742;1.236;2023-09-19T15:36:10;36.20;99.90
44277;DHT22;29973;43.742;1.236;2023-09-19T15:41:22;36.90;99.90
44277;DHT22;29973;43.742;1.236;2023-09-19T15:43:48;36.80;99.90
44277;DHT22;29973;43.742;1.236;2023-09-19T15:46:14;37.40;99.90
44277;DHT22;29973;43.742;1.236;2023-09-19T15:48:41;37.40;99.90
44277;DHT22;29973;43.742;1.236;2023-09-19T15:51:07;36.00;99.90
44277;DHT22;29973;43.742;1.236;2023-09-19T15:53:47;35.70;99.90
44277;DHT22;29973;43.742;1.236;2023-09-19T15:56:14;36.40;99.90
44277;DHT22;29973;43.742;1.236;2023-09-19T15:58:44;35.80;99.90
44277;DHT22;29973;43.742;1.236;2023-09-19T16:01:10;35.20;99.90
44277;DHT22;29973;43.742;1.236;2023-09-19T16:03:37;35.60;99.90
44277;DHT22;29973;43.742;1.236;2023-09-19T16:06:11;34.70;99.90
44277;DHT22;29973;43.742;1.236;2023-09-19T16:08:42;36.40;99.90
44277;DHT22;29973;43.742;1.236;2023-09-19T16:11:08;36.90;99.90
44277;DHT22;29973;43.742;1.236;2023-09-19T16:13:39;35.40;99.90
44277;DHT22;29973;43.742;1.236;2023-09-19T16:16:07;35.50;99.90
44277;DHT22;29973;43.742;1.236;2023-09-19T16:18:34;33.90;99.90
44277;DHT22;29973;43.742;1.236;2023-09-19T16:21:03;35.10;99.90
44277;DHT22;29973;43.742;1.236;2023-09-19T16:23:30;35.70;99.90
44277;DHT22;29973;43.742;1.236;2023-09-19T16:26:07;35.70;99.90
44277;DHT22;29973;43.742;1.236;2023-09-19T16:28:39;36.00;99.90